Terminal Aerodrome Forecast
Issued by NWS

Home | Current Version | Previous Version | Text Only | Print | Product List | Glossary On
Versions: 1 2 3 4 5 6 7 8 9 10 11 12 13 14 15 16
000
FTUS41 KAKQ 290500
TAFPHF
TAF
KPHF 290530Z 2906/3006 VRB04KT P6SM BKN010 OVC080
     FM291000 03008KT 4SM -RA BR SCT008 BKN020 OVC080
     FM291700 05006KT 6SM -RA BR OVC010
     FM300300 04006KT P6SM -SHRA BKN015 OVC025=

USA.gov is the U.S. government's official web portal to all federal, state and local government web resources and services.